Isleworth, United Kingdom
Current Conditions -  °F | °C
As of 5:50 AM on Sunday 26 Oct 2014 (Local Time) from EGLL Reporting Station
Broken Clouds Broken Clouds  
Wind Chill: 12°   Ceiling: 4000
Heat Index: 12°   Visibility: 6mi
Dew Point:   Wind: 8mph
Humidity: 77%   Direction: 210°SSW
Pressure: 30.15"   Gusts: NA
Location:  51.47°N, 0.35°W
Report Text: EGLL 260450Z 21007KT 9999 BKN040 12/08 Q1021 NOSIG
Loading
Personal Weather Stations






























Interactive Weather Map
Tropical Storm Tracking
New forecast layout! Learn more

10-Day Weather Forecast

Advertisements
Track Severe Weather on mobile